Time;durP1;ratioP1;P1;durP2;ratioP2;P2;SDS_P1;SDS_P2;PMS_P1;PMS_P2;Temp;Humidity;BMP_temperature;BMP_pressure;BME280_temperature;BME280_humidity;BME280_pressure;Samples;Min_cycle;Max_cycle;Signal;HPM_P1;HPM_P2
2022/08/13 00:00:34;;;;;;;2.50;1.30;;;22.00;80.50;;;;;;5030585;28;20414;-72
2022/08/13 00:03:01;;;;;;;3.42;1.40;;;22.00;81.00;;;;;;5030637;28;20438;-72
2022/08/13 00:05:27;;;;;;;3.53;1.30;;;21.90;81.40;;;;;;5030056;28;20443;-72
2022/08/13 00:07:53;;;;;;;2.95;1.23;;;21.80;81.80;;;;;;5023538;28;20400;-72
2022/08/13 00:10:29;;;;;;;3.55;1.55;;;21.80;82.10;;;;;;5026923;28;20415;-72
2022/08/13 00:12:57;;;;;;;3.13;1.20;;;21.70;82.60;;;;;;5029658;28;20635;-72
2022/08/13 00:15:35;;;;;;;2.72;1.50;;;21.70;83.10;;;;;;5029745;28;20442;-72
2022/08/13 00:18:06;;;;;;;4.65;1.33;;;21.70;82.90;;;;;;5029467;28;20422;-72
2022/08/13 00:20:39;;;;;;;4.38;1.35;;;21.70;83.40;;;;;;5018031;28;20407;-72
2022/08/13 00:23:15;;;;;;;6.72;1.90;;;21.60;84.10;;;;;;5030250;28;20477;-72
2022/08/13 00:25:42;;;;;;;4.28;1.58;;;21.60;84.60;;;;;;5030472;28;20403;-72
2022/08/13 00:28:08;;;;;;;4.15;1.60;;;21.60;85.30;;;;;;5029741;28;20423;-72
2022/08/13 00:30:35;;;;;;;5.20;2.05;;;21.50;85.60;;;;;;5029962;28;20407;-72
2022/08/13 00:33:05;;;;;;;4.80;1.60;;;21.50;86.10;;;;;;5029751;28;20431;-72
2022/08/13 00:35:33;;;;;;;5.20;2.00;;;21.50;86.80;;;;;;5029948;28;20411;-72
2022/08/13 00:37:59;;;;;;;4.72;1.83;;;21.50;87.30;;;;;;5030001;28;20415;-72
2022/08/13 00:40:29;;;;;;;3.83;1.60;;;21.50;88.30;;;;;;5029831;28;20422;-72
2022/08/13 00:43:02;;;;;;;4.40;1.87;;;21.50;89.30;;;;;;5029469;28;20411;-72
2022/08/13 00:45:30;;;;;;;5.18;2.03;;;21.40;89.90;;;;;;5029548;28;20522;-71
2022/08/13 00:50:40;;;;;;;5.03;1.65;;;21.40;90.60;;;;;;5029343;28;20412;-72
2022/08/13 00:53:06;;;;;;;6.00;1.83;;;21.40;90.80;;;;;;5029063;28;20434;-72
2022/08/13 00:55:33;;;;;;;3.17;1.67;;;21.40;91.10;;;;;;5029785;28;20414;-72
2022/08/13 00:57:58;;;;;;;4.17;1.60;;;21.40;91.30;;;;;;5029259;28;20399;-72
2022/08/13 01:00:26;;;;;;;4.05;2.15;;;21.30;91.40;;;;;;5029391;28;20437;-71
2022/08/13 01:02:54;;;;;;;4.83;1.80;;;21.30;91.70;;;;;;5029505;28;20420;-71
2022/08/13 01:05:20;;;;;;;4.07;1.90;;;21.30;92.00;;;;;;5028684;28;20407;-71
2022/08/13 01:07:46;;;;;;;5.40;2.03;;;21.30;92.10;;;;;;5023691;28;20741;-72
2022/08/13 01:10:14;;;;;;;4.70;1.70;;;21.30;92.30;;;;;;5025106;28;20785;-71
2022/08/13 01:12:41;;;;;;;4.50;1.73;;;21.30;92.50;;;;;;5028841;28;20419;-72
2022/08/13 01:15:12;;;;;;;4.13;1.80;;;21.30;92.60;;;;;;5029330;28;20801;-72
2022/08/13 01:17:45;;;;;;;3.88;1.92;;;21.30;92.70;;;;;;5028830;28;20423;-72
2022/08/13 01:20:16;;;;;;;4.97;2.03;;;21.20;93.00;;;;;;5028985;28;20427;-72
2022/08/13 01:22:44;;;;;;;6.07;2.08;;;21.20;93.40;;;;;;5028741;28;20407;-72
2022/08/13 01:25:10;;;;;;;3.28;1.80;;;21.20;93.40;;;;;;5028758;28;20800;-72
2022/08/13 01:27:39;;;;;;;4.70;1.90;;;21.20;93.40;;;;;;5028776;28;21000;-72
2022/08/13 01:30:09;;;;;;;4.60;1.70;;;21.20;93.50;;;;;;5028422;28;20411;-72
2022/08/13 01:32:37;;;;;;;4.78;1.98;;;21.20;93.40;;;;;;5028769;28;20451;-72
2022/08/13 01:35:05;;;;;;;3.92;1.80;;;21.20;93.30;;;;;;5016606;28;20465;-72
2022/08/13 01:37:33;;;;;;;5.00;2.05;;;21.30;93.40;;;;;;5028842;28;21018;-72
2022/08/13 01:39:59;;;;;;;3.10;1.60;;;21.30;93.40;;;;;;5028511;28;20439;-72
2022/08/13 01:42:25;;;;;;;3.17;1.80;;;21.20;93.00;;;;;;5028104;28;20411;-72
2022/08/13 01:44:51;;;;;;;4.22;1.60;;;21.30;93.00;;;;;;5028996;28;20411;-72
2022/08/13 01:52:50;;;;;;;6.27;1.73;;;21.20;93.00;;;;;;5028625;28;20399;-72
2022/08/13 01:55:17;;;;;;;3.60;1.80;;;21.20;93.00;;;;;;5028230;28;20506;-72
2022/08/13 01:57:44;;;;;;;4.00;1.85;;;21.20;92.90;;;;;;5027765;28;20493;-72
2022/08/13 02:00:16;;;;;;;3.85;1.63;;;21.20;92.80;;;;;;5028096;28;20407;-72
2022/08/13 02:02:44;;;;;;;5.68;2.30;;;21.10;92.70;;;;;;5016351;28;20411;-72
2022/08/13 02:05:11;;;;;;;5.55;1.92;;;21.10;92.50;;;;;;5028407;28;20398;-72
2022/08/13 02:07:43;;;;;;;3.15;1.48;;;21.10;92.80;;;;;;5023434;28;20910;-72
2022/08/13 02:10:09;;;;;;;3.55;1.40;;;21.00;92.50;;;;;;5023637;28;20407;-72
2022/08/13 02:12:38;;;;;;;2.97;1.60;;;21.00;92.40;;;;;;5028199;28;20453;-72
2022/08/13 02:15:06;;;;;;;2.67;1.70;;;21.00;92.60;;;;;;5027894;28;20411;-72
2022/08/13 02:17:41;;;;;;;2.42;1.63;;;20.90;92.40;;;;;;5028422;28;20412;-72
2022/08/13 02:20:11;;;;;;;5.38;1.70;;;21.00;92.40;;;;;;5028139;28;20482;-72
2022/08/13 02:22:37;;;;;;;4.47;1.52;;;20.90;91.90;;;;;;5028257;28;20406;-72
2022/08/13 02:25:04;;;;;;;2.93;1.50;;;20.90;91.90;;;;;;5027543;28;20457;-72
2022/08/13 02:27:30;;;;;;;2.80;1.70;;;20.90;92.30;;;;;;5027693;28;20928;-72
2022/08/13 02:29:56;;;;;;;4.22;1.35;;;20.90;91.80;;;;;;5027377;28;20403;-72
2022/08/13 02:32:23;;;;;;;3.90;1.52;;;20.90;91.40;;;;;;5026179;28;20426;-72
2022/08/13 02:34:50;;;;;;;3.13;1.60;;;20.90;91.50;;;;;;5027453;28;20523;-72
2022/08/13 02:37:21;;;;;;;3.45;1.40;;;20.90;91.50;;;;;;5027277;28;20859;-72
2022/08/13 02:39:50;;;;;;;2.50;1.37;;;20.90;91.60;;;;;;5027439;28;20417;-73
2022/08/13 02:42:17;;;;;;;4.40;1.65;;;20.80;91.80;;;;;;5027597;28;20932;-72
2022/08/13 02:44:47;;;;;;;3.70;1.65;;;20.80;91.50;;;;;;5027864;28;20932;-71
2022/08/13 02:47:13;;;;;;;3.10;1.30;;;20.80;91.50;;;;;;5027605;28;20407;-72
2022/08/13 02:49:40;;;;;;;3.07;1.70;;;20.70;91.70;;;;;;5027631;28;20407;-72
2022/08/13 02:52:08;;;;;;;3.92;1.50;;;20.70;91.70;;;;;;5027646;28;20437;-72
2022/08/13 02:54:39;;;;;;;5.25;1.60;;;20.70;92.00;;;;;;5027434;28;20466;-71
2022/08/13 02:57:06;;;;;;;2.93;1.40;;;20.60;92.00;;;;;;5027852;28;20849;-72
2022/08/13 02:59:32;;;;;;;3.20;1.48;;;20.60;91.90;;;;;;5026405;28;20449;-72
2022/08/13 03:02:00;;;;;;;2.80;1.70;;;20.60;91.80;;;;;;5027657;28;20411;-72
2022/08/13 03:04:25;;;;;;;2.30;1.42;;;20.50;91.90;;;;;;5027425;28;20443;-72
2022/08/13 03:06:51;;;;;;;5.73;1.70;;;20.50;92.00;;;;;;5027873;28;20430;-72
2022/08/13 03:09:22;;;;;;;3.95;1.52;;;20.50;92.00;;;;;;5027286;28;20411;-72
2022/08/13 03:11:49;;;;;;;4.05;1.50;;;20.50;91.90;;;;;;5027605;28;20422;-72
2022/08/13 03:14:15;;;;;;;2.75;1.40;;;20.50;91.90;;;;;;5027397;28;20496;-72
2022/08/13 03:16:42;;;;;;;2.95;1.60;;;20.40;91.90;;;;;;5027669;28;20441;-72
2022/08/13 03:19:08;;;;;;;3.63;1.60;;;20.40;92.00;;;;;;5027223;28;20778;-72
2022/08/13 03:21:39;;;;;;;3.67;1.50;;;20.30;92.00;;;;;;5026875;28;20403;-72
2022/08/13 03:24:07;;;;;;;3.38;1.60;;;20.30;92.00;;;;;;5027520;28;20458;-72
2022/08/13 03:26:33;;;;;;;4.50;2.00;;;20.30;92.00;;;;;;5027567;28;20461;-72
2022/08/13 03:29:00;;;;;;;3.42;1.75;;;20.30;92.10;;;;;;5027164;28;20446;-72
2022/08/13 03:31:27;;;;;;;4.55;1.63;;;20.30;92.00;;;;;;5026741;28;20395;-73
2022/08/13 03:34:01;;;;;;;5.07;1.60;;;20.30;91.90;;;;;;5027205;28;20423;-73
2022/08/13 03:36:27;;;;;;;3.35;1.55;;;20.30;91.80;;;;;;5027403;28;20414;-73
2022/08/13 03:38:53;;;;;;;2.90;1.50;;;20.30;92.10;;;;;;5026867;28;20399;-73
2022/08/13 03:41:19;;;;;;;4.47;1.50;;;20.30;92.00;;;;;;5026268;28;20789;-71
2022/08/13 03:43:47;;;;;;;4.20;1.80;;;20.20;92.10;;;;;;5027008;28;20411;-72
2022/08/13 03:46:21;;;;;;;4.45;1.73;;;20.20;91.90;;;;;;5027294;28;20426;-72
2022/08/13 03:48:48;;;;;;;4.53;1.93;;;20.20;91.60;;;;;;5028752;28;20439;-72
2022/08/13 03:51:16;;;;;;;3.83;1.70;;;20.20;91.50;;;;;;5030994;28;20842;-71
2022/08/13 03:53:43;;;;;;;5.13;1.93;;;20.20;91.30;;;;;;5030724;28;20466;-72
2022/08/13 03:56:09;;;;;;;3.25;1.65;;;20.20;91.20;;;;;;5030489;28;20406;-72
2022/08/13 03:58:37;;;;;;;3.38;1.73;;;20.20;91.30;;;;;;5030465;28;20500;-72
2022/08/13 04:01:04;;;;;;;3.50;1.60;;;20.20;91.00;;;;;;5030682;28;20403;-71
2022/08/13 04:03:36;;;;;;;3.65;1.50;;;20.10;91.20;;;;;;5030528;28;20419;-72
2022/08/13 04:06:08;;;;;;;3.38;1.63;;;20.10;90.90;;;;;;5030432;28;20403;-72
2022/08/13 04:08:36;;;;;;;3.78;1.77;;;20.10;91.00;;;;;;5030192;28;20921;-72
2022/08/13 04:11:08;;;;;;;4.20;1.90;;;20.10;91.10;;;;;;5030129;28;20418;-72
2022/08/13 04:13:36;;;;;;;3.63;1.75;;;20.10;91.10;;;;;;5029593;28;20473;-73
2022/08/13 04:16:07;;;;;;;3.53;1.83;;;20.10;91.50;;;;;;5029907;28;20412;-72
2022/08/13 04:18:35;;;;;;;3.58;1.73;;;20.00;91.80;;;;;;5030014;28;20956;-72
2022/08/13 04:21:03;;;;;;;4.80;2.00;;;19.90;91.80;;;;;;5029575;28;20399;-72
2022/08/13 04:23:28;;;;;;;3.97;1.63;;;19.90;91.80;;;;;;5030439;28;20398;-73
2022/08/13 04:25:55;;;;;;;4.88;1.50;;;19.90;91.60;;;;;;5029988;28;20409;-73
2022/08/13 04:28:21;;;;;;;3.42;1.75;;;19.90;91.80;;;;;;5029544;28;20824;-73
2022/08/13 04:30:47;;;;;;;3.80;1.75;;;19.80;91.50;;;;;;5029084;28;20750;-72
2022/08/13 04:33:15;;;;;;;5.28;1.73;;;19.80;91.40;;;;;;5029345;28;20427;-72
2022/08/13 04:35:42;;;;;;;2.57;1.40;;;19.90;91.10;;;;;;5028727;28;20530;-72
2022/08/13 04:38:08;;;;;;;3.28;1.58;;;19.90;91.60;;;;;;5029307;28;20461;-72
2022/08/13 04:40:38;;;;;;;6.22;1.70;;;19.80;91.60;;;;;;5029841;28;20407;-72
2022/08/13 04:43:05;;;;;;;3.28;1.50;;;19.80;91.30;;;;;;5029730;28;20495;-72
2022/08/13 04:45:32;;;;;;;3.65;1.67;;;19.80;91.10;;;;;;5028050;28;20940;-73
2022/08/13 04:48:00;;;;;;;5.00;1.70;;;19.90;91.30;;;;;;5029641;28;20965;-72
2022/08/13 04:50:31;;;;;;;2.75;1.50;;;19.90;91.00;;;;;;5016757;28;20847;-72
2022/08/13 04:52:57;;;;;;;4.85;1.52;;;19.90;91.10;;;;;;5029442;28;20427;-72
2022/08/13 04:55:23;;;;;;;4.30;1.50;;;19.90;91.00;;;;;;5029624;28;20403;-72
2022/08/13 04:57:49;;;;;;;4.47;1.42;;;19.90;90.80;;;;;;5028988;28;20438;-71
2022/08/13 05:00:15;;;;;;;4.07;1.50;;;19.90;90.70;;;;;;5029510;28;20399;-72
2022/08/13 05:02:43;;;;;;;3.33;1.65;;;20.00;91.10;;;;;;5029599;28;20407;-72
2022/08/13 05:05:12;;;;;;;3.00;1.50;;;20.00;91.40;;;;;;5029538;28;20419;-72
2022/08/13 05:07:38;;;;;;;2.55;1.48;;;20.00;91.10;;;;;;5029427;28;20504;-71
2022/08/13 05:10:06;;;;;;;4.20;1.60;;;20.00;91.40;;;;;;5029493;28;20541;-71
2022/08/13 05:12:36;;;;;;;3.28;1.60;;;20.00;91.10;;;;;;5028721;28;20837;-72
2022/08/13 05:15:03;;;;;;;4.20;1.50;;;20.00;91.80;;;;;;5029350;28;20419;-72
2022/08/13 05:17:30;;;;;;;4.13;1.73;;;20.00;91.70;;;;;;5028978;28;20411;-71
2022/08/13 05:19:56;;;;;;;3.97;1.60;;;20.00;91.90;;;;;;5028621;28;20415;-72
2022/08/13 05:22:23;;;;;;;4.57;1.65;;;20.00;91.80;;;;;;5028977;28;20477;-72
2022/08/13 05:24:50;;;;;;;2.90;1.58;;;20.00;91.90;;;;;;5029215;28;20407;-72
2022/08/13 05:27:16;;;;;;;3.22;1.50;;;20.10;92.20;;;;;;5029036;28;20534;-72
2022/08/13 05:29:43;;;;;;;3.33;1.55;;;20.20;92.20;;;;;;5028162;28;20502;-72
2022/08/13 05:32:10;;;;;;;3.50;1.70;;;20.20;91.50;;;;;;5028401;28;20777;-72
2022/08/13 05:34:37;;;;;;;4.82;1.67;;;20.30;91.80;;;;;;5028892;28;20585;-72
2022/08/13 05:37:03;;;;;;;3.70;1.60;;;20.30;91.70;;;;;;5028563;28;20420;-72
2022/08/13 05:39:30;;;;;;;5.10;1.60;;;20.40;91.60;;;;;;5028517;28;20984;-72
2022/08/13 05:41:56;;;;;;;3.83;1.30;;;20.40;91.40;;;;;;5028869;28;20416;-72
2022/08/13 05:44:22;;;;;;;4.03;1.35;;;20.50;91.20;;;;;;5028650;28;20422;-72
2022/08/13 05:46:48;;;;;;;3.03;1.50;;;20.60;91.10;;;;;;5028577;28;20403;-72
2022/08/13 05:49:15;;;;;;;3.47;1.30;;;20.60;90.90;;;;;;5028707;28;20465;-72
2022/08/13 05:51:43;;;;;;;3.53;1.50;;;20.60;90.80;;;;;;5028320;28;20434;-72
2022/08/13 05:54:10;;;;;;;3.55;1.15;;;20.70;90.70;;;;;;5028703;28;20514;-71
2022/08/13 05:56:37;;;;;;;3.03;1.20;;;20.80;90.50;;;;;;5028446;28;20406;-72
2022/08/13 05:59:04;;;;;;;4.15;1.60;;;20.80;90.20;;;;;;5028735;28;21018;-72
2022/08/13 06:04:14;;;;;;;2.85;1.27;;;21.00;90.40;;;;;;5028207;28;20960;-72
2022/08/13 06:06:41;;;;;;;2.72;1.35;;;21.00;90.60;;;;;;5027317;28;20882;-72
2022/08/13 06:09:09;;;;;;;2.90;1.45;;;21.10;90.50;;;;;;5028327;28;20414;-72
2022/08/13 06:11:35;;;;;;;2.63;1.33;;;21.20;90.50;;;;;;5027106;28;20418;-72
2022/08/13 06:14:01;;;;;;;3.28;1.20;;;21.20;90.30;;;;;;5027096;28;20508;-71
2022/08/13 06:16:30;;;;;;;2.60;1.30;;;21.30;90.10;;;;;;5028278;28;20773;-72
2022/08/13 06:19:00;;;;;;;1.80;1.13;;;21.40;89.50;;;;;;5027800;28;20400;-72
2022/08/13 06:21:27;;;;;;;3.05;1.30;;;21.50;89.80;;;;;;5027825;28;20432;-72
2022/08/13 06:23:54;;;;;;;3.22;1.17;;;21.50;89.50;;;;;;5027997;28;20485;-72
2022/08/13 06:26:21;;;;;;;3.35;1.15;;;21.60;88.10;;;;;;5028293;28;20529;-72
2022/08/13 06:28:50;;;;;;;3.72;1.52;;;21.60;88.00;;;;;;5027984;28;20473;-72
2022/08/13 06:31:20;;;;;;;2.85;1.20;;;21.80;87.90;;;;;;5027863;28;20861;-71
2022/08/13 06:33:46;;;;;;;4.20;1.48;;;21.80;86.80;;;;;;5026087;28;20426;-72
2022/08/13 06:36:16;;;;;;;4.30;1.60;;;21.90;87.00;;;;;;5027995;28;20450;-72
2022/08/13 06:38:43;;;;;;;3.97;1.50;;;21.90;86.00;;;;;;5027751;28;20920;-72
2022/08/13 06:41:11;;;;;;;5.38;1.70;;;22.00;86.40;;;;;;5028207;28;20471;-72
2022/08/13 06:43:44;;;;;;;3.27;1.67;;;22.00;85.40;;;;;;5027668;28;20435;-72
2022/08/13 06:46:12;;;;;;;4.30;1.67;;;22.10;85.60;;;;;;5027788;28;20405;-73
2022/08/13 06:48:41;;;;;;;5.07;1.42;;;22.20;85.80;;;;;;5027297;28;20805;-72
2022/08/13 06:51:11;;;;;;;2.60;1.25;;;22.20;86.00;;;;;;5027759;28;20407;-72
2022/08/13 06:53:38;;;;;;;2.65;1.38;;;22.20;86.20;;;;;;5027479;28;20435;-72
2022/08/13 06:56:08;;;;;;;6.03;1.53;;;22.30;86.10;;;;;;5027277;28;20437;-72
2022/08/13 06:58:35;;;;;;;3.70;1.50;;;22.40;86.00;;;;;;5027831;28;20399;-72
2022/08/13 07:01:01;;;;;;;4.17;1.53;;;22.50;86.70;;;;;;5027496;28;20833;-72
2022/08/13 07:03:32;;;;;;;2.88;1.50;;;22.50;86.00;;;;;;5027410;28;20406;-72
2022/08/13 07:05:58;;;;;;;5.28;1.80;;;22.60;86.10;;;;;;5027572;28;20407;-72
2022/08/13 07:08:26;;;;;;;4.25;1.80;;;22.70;85.30;;;;;;5027650;28;20419;-72
2022/08/13 07:13:44;;;;;;;4.78;1.60;;;22.80;84.10;;;;;;5027420;28;20996;-72
2022/08/13 07:16:14;;;;;;;3.22;1.60;;;22.90;84.40;;;;;;5026543;28;20419;-72
2022/08/13 07:18:40;;;;;;;3.25;1.10;;;23.00;84.00;;;;;;5027576;28;20458;-71
2022/08/13 07:21:11;;;;;;;3.60;1.30;;;23.10;84.70;;;;;;5027490;28;20392;-71
2022/08/13 07:23:38;;;;;;;2.87;1.23;;;23.20;84.50;;;;;;5029687;28;20395;-71
2022/08/13 07:26:04;;;;;;;4.65;1.10;;;23.20;83.70;;;;;;5018889;28;20406;-71
2022/08/13 07:28:31;;;;;;;3.95;1.33;;;23.30;82.20;;;;;;5031150;28;20494;-71
2022/08/13 07:30:58;;;;;;;3.20;1.10;;;23.40;80.30;;;;;;5031040;28;20468;-71
2022/08/13 07:33:24;;;;;;;6.00;1.02;;;23.50;80.20;;;;;;5030296;28;20438;-70
2022/08/13 07:35:50;;;;;;;6.20;1.23;;;23.70;80.60;;;;;;5030793;28;20429;-71
2022/08/13 07:38:16;;;;;;;2.43;1.07;;;23.70;80.20;;;;;;5030588;28;20905;-71
2022/08/13 07:40:44;;;;;;;4.70;1.13;;;23.80;79.30;;;;;;5031303;28;20893;-71
2022/08/13 07:43:12;;;;;;;2.03;1.00;;;23.90;78.90;;;;;;5030909;28;20400;-70
2022/08/13 07:45:39;;;;;;;2.08;0.98;;;24.00;79.30;;;;;;5030921;28;20421;-71
2022/08/13 07:48:06;;;;;;;3.00;1.00;;;24.00;79.30;;;;;;5030823;28;20458;-71
2022/08/13 07:50:33;;;;;;;2.85;1.20;;;24.10;79.40;;;;;;5031271;28;20491;-71
2022/08/13 07:52:59;;;;;;;5.00;1.00;;;24.20;78.30;;;;;;5030571;28;20407;-70
2022/08/13 07:55:27;;;;;;;2.53;0.87;;;24.30;78.20;;;;;;5029594;28;20413;-72
2022/08/13 07:57:53;;;;;;;3.60;0.80;;;24.40;78.30;;;;;;5021911;28;20937;-71
2022/08/13 08:00:24;;;;;;;2.60;0.82;;;24.50;77.60;;;;;;5031007;28;20411;-71
2022/08/13 08:03:01;;;;;;;2.45;0.75;;;24.50;77.10;;;;;;5017737;28;20401;-71
2022/08/13 08:05:30;;;;;;;2.35;0.95;;;24.60;76.70;;;;;;5030783;28;20410;-72
2022/08/13 08:07:56;;;;;;;1.85;0.73;;;24.70;76.70;;;;;;5028843;28;20468;-71
2022/08/13 08:10:23;;;;;;;2.65;0.77;;;24.80;73.70;;;;;;5030526;28;20438;-71
2022/08/13 08:12:49;;;;;;;3.20;0.70;;;24.90;73.80;;;;;;5027805;28;20435;-71
2022/08/13 08:15:14;;;;;;;3.83;0.73;;;25.00;73.80;;;;;;5029394;28;20839;-67
2022/08/13 08:17:40;;;;;;;3.47;0.80;;;25.10;73.50;;;;;;5025686;28;20417;-71
2022/08/13 08:20:07;;;;;;;2.08;0.80;;;25.20;73.80;;;;;;5028907;28;21271;-71
2022/08/13 08:22:33;;;;;;;2.88;0.80;;;25.20;72.50;;;;;;5028714;28;20933;-72
2022/08/13 08:25:00;;;;;;;1.85;0.90;;;25.30;73.00;;;;;;5023666;28;20457;-72
2022/08/13 08:27:25;;;;;;;2.60;0.80;;;25.40;72.10;;;;;;5029902;28;20430;-72
2022/08/13 08:29:52;;;;;;;3.40;0.83;;;25.40;72.00;;;;;;5022517;28;20401;-72
2022/08/13 08:32:18;;;;;;;5.07;0.80;;;25.50;72.80;;;;;;5029427;28;20415;-72
2022/08/13 08:34:46;;;;;;;2.10;0.70;;;25.60;72.80;;;;;;5028749;28;20435;-71
2022/08/13 08:42:52;;;;;;;2.05;0.80;;;25.90;71.20;;;;;;5029725;28;20409;-72
2022/08/13 08:45:19;;;;;;;2.83;0.60;;;26.00;70.60;;;;;;5024655;28;20929;-72
2022/08/13 08:47:45;;;;;;;4.40;0.73;;;26.10;70.50;;;;;;5029464;28;20407;-72
2022/08/13 08:50:11;;;;;;;2.90;0.57;;;26.20;68.50;;;;;;5029137;28;20561;-73
2022/08/13 08:55:24;;;;;;;2.20;0.60;;;26.50;67.90;;;;;;5021574;28;20420;-71
2022/08/13 08:57:51;;;;;;;3.00;0.60;;;26.50;67.20;;;;;;5024227;28;20399;-73
2022/08/13 09:00:18;;;;;;;3.92;0.95;;;26.60;66.70;;;;;;5028385;28;20472;-72
2022/08/13 09:02:48;;;;;;;3.00;0.82;;;26.70;67.30;;;;;;5025887;28;20418;-72
2022/08/13 09:05:16;;;;;;;2.95;0.90;;;26.80;68.60;;;;;;5023792;28;20409;-72
2022/08/13 09:07:46;;;;;;;1.77;0.60;;;26.90;68.90;;;;;;5022269;28;21153;-72
2022/08/13 09:10:13;;;;;;;2.85;1.02;;;27.10;70.20;;;;;;5029049;28;20962;-72
2022/08/13 09:12:42;;;;;;;3.57;1.10;;;27.10;70.20;;;;;;5027595;28;20533;-72
2022/08/13 09:15:17;;;;;;;4.60;0.98;;;27.30;70.60;;;;;;5024322;28;20798;-71
2022/08/13 09:17:45;;;;;;;2.53;0.80;;;27.40;70.70;;;;;;5026432;28;20450;-71
2022/08/13 09:20:14;;;;;;;2.88;0.95;;;27.50;71.00;;;;;;5021735;28;20420;-71
2022/08/13 09:22:42;;;;;;;3.50;0.90;;;27.60;71.20;;;;;;5024901;28;20407;-73
2022/08/13 09:25:08;;;;;;;3.47;0.80;;;27.70;70.30;;;;;;5028256;28;20434;-71
2022/08/13 09:27:35;;;;;;;3.95;1.00;;;27.80;70.30;;;;;;5027793;28;20427;-70
2022/08/13 09:30:03;;;;;;;3.47;0.82;;;27.90;70.10;;;;;;5029465;28;20877;-70
2022/08/13 09:32:31;;;;;;;1.73;0.80;;;28.50;68.70;;;;;;5028721;28;20415;-70
2022/08/13 09:34:57;;;;;;;;;;;29.00;68.10;;;;;;5029166;28;20095;-71
2022/08/13 09:37:24;;;;;;;4.22;1.05;;;29.50;68.60;;;;;;5030270;28;19921;-70
2022/08/13 09:39:58;;;;;;;3.22;0.90;;;30.10;67.80;;;;;;5028700;28;20049;-70
2022/08/13 09:42:32;;;;;;;3.35;0.88;;;30.60;66.30;;;;;;5029727;28;20041;-71
2022/08/13 09:44:59;;;;;;;;;;;31.00;64.10;;;;;;5029990;28;20057;-71
2022/08/13 09:47:26;;;;;;;3.00;0.90;;;31.30;63.30;;;;;;5029735;28;19928;-72
2022/08/13 09:49:51;;;;;;;2.80;0.68;;;31.60;62.90;;;;;;5030523;28;20053;-72
2022/08/13 09:52:20;;;;;;;2.35;0.70;;;32.00;63.10;;;;;;5029727;28;20037;-72
2022/08/13 09:54:48;;;;;;;1.00;0.55;;;32.30;59.70;;;;;;5029840;28;20045;-71
2022/08/13 09:57:13;;;;;;;1.88;0.52;;;32.60;57.70;;;;;;5029877;28;20049;-71
2022/08/13 09:59:39;;;;;;;4.32;0.60;;;32.70;58.00;;;;;;5028793;28;20040;-71
2022/08/13 10:02:09;;;;;;;2.35;0.50;;;32.70;57.80;;;;;;5029333;28;20380;-72
2022/08/13 10:04:37;;;;;;;1.10;0.50;;;32.90;58.10;;;;;;5029430;28;20113;-71
2022/08/13 10:07:03;;;;;;;1.90;0.63;;;33.30;56.60;;;;;;5029099;28;20045;-72
2022/08/13 10:09:30;;;;;;;1.98;0.50;;;33.50;56.70;;;;;;5029266;28;20423;-73
2022/08/13 10:11:58;;;;;;;1.80;0.68;;;33.70;55.40;;;;;;5029379;28;20053;-72
2022/08/13 10:14:24;;;;;;;1.65;0.55;;;33.80;52.50;;;;;;5028623;28;20136;-72
2022/08/13 10:16:52;;;;;;;2.97;0.50;;;33.80;53.70;;;;;;5028150;28;20962;-73
2022/08/13 10:19:17;;;;;;;2.38;0.57;;;34.00;53.50;;;;;;5027685;28;20403;-72
2022/08/13 10:21:44;;;;;;;1.20;0.40;;;34.20;52.10;;;;;;5028283;28;20402;-73
2022/08/13 10:24:10;;;;;;;2.72;0.50;;;34.20;50.90;;;;;;5020592;28;20427;-73
2022/08/13 10:26:40;;;;;;;1.30;0.30;;;34.30;51.10;;;;;;5025813;28;20435;-72
2022/08/13 10:29:09;;;;;;;;;;;34.40;50.00;;;;;;5030044;28;20049;-73
2022/08/13 10:31:35;;;;;;;1.05;0.40;;;34.50;50.40;;;;;;5029092;28;19928;-73
2022/08/13 10:34:03;;;;;;;3.10;0.30;;;34.70;49.70;;;;;;5029231;28;20087;-73
2022/08/13 10:36:30;;;;;;;;;;;34.90;50.60;;;;;;5029815;28;20148;-73
2022/08/13 10:38:55;;;;;;;2.20;0.40;;;35.00;49.00;;;;;;5028044;28;20347;-73
2022/08/13 10:41:22;;;;;;;0.80;0.35;;;35.10;47.90;;;;;;5029115;28;20120;-73
2022/08/13 10:43:48;;;;;;;4.25;0.63;;;35.20;47.60;;;;;;5028604;28;20045;-73
2022/08/13 10:46:20;;;;;;;2.25;0.30;;;35.30;47.90;;;;;;5028582;28;20522;-73
2022/08/13 10:48:55;;;;;;;7.75;1.33;;;35.40;48.70;;;;;;5028471;28;20048;-72
2022/08/13 10:51:22;;;;;;;1.88;0.50;;;35.50;48.50;;;;;;5029239;28;20059;-72
2022/08/13 10:54:00;;;;;;;2.33;0.47;;;35.60;47.70;;;;;;5028936;28;20033;-73
2022/08/13 10:56:28;;;;;;;2.13;0.47;;;35.70;47.50;;;;;;5029112;28;20268;-72
2022/08/13 10:58:56;;;;;;;1.38;0.50;;;35.70;47.10;;;;;;5032493;28;20041;-73
2022/08/13 11:01:26;;;;;;;1.50;0.70;;;35.70;47.00;;;;;;5032971;28;20041;-73
2022/08/13 11:03:56;;;;;;;2.13;0.43;;;35.90;47.50;;;;;;5021266;28;20033;-72
2022/08/13 11:06:24;;;;;;;1.58;0.63;;;36.10;46.20;;;;;;5032899;28;20056;-72
2022/08/13 11:08:50;;;;;;;2.40;0.32;;;36.10;46.50;;;;;;5032940;28;20480;-72
2022/08/13 11:11:16;;;;;;;2.83;0.50;;;36.00;45.00;;;;;;5032583;28;20057;-72
2022/08/13 11:13:42;;;;;;;0.90;0.40;;;36.10;46.40;;;;;;5030620;28;20103;-72
2022/08/13 11:19:14;;;;;;;0.70;0.50;;;36.10;44.90;;;;;;5009612;28;20578;-72
2022/08/13 11:21:44;;;;;;;1.00;0.30;;;36.10;43.70;;;;;;5028981;28;20845;-72
2022/08/13 11:24:11;;;;;;;2.22;0.30;;;36.00;45.00;;;;;;5029757;28;21245;-72
2022/08/13 11:26:37;;;;;;;1.40;0.40;;;36.10;43.70;;;;;;5031386;28;20090;-72
2022/08/13 11:29:04;;;;;;;1.33;0.40;;;36.20;44.40;;;;;;5031529;28;20045;-72
2022/08/13 11:31:30;;;;;;;3.63;0.40;;;36.30;44.20;;;;;;5031764;28;20104;-72
2022/08/13 11:33:55;;;;;;;1.73;0.40;;;36.40;44.00;;;;;;5032783;28;20054;-72
2022/08/13 11:36:21;;;;;;;0.38;0.28;;;36.40;44.00;;;;;;5031931;28;20603;-72
2022/08/13 11:38:47;;;;;;;1.70;0.70;;;36.50;43.30;;;;;;5027067;28;20049;-72
2022/08/13 11:41:13;;;;;;;1.80;0.45;;;36.30;42.90;;;;;;5027626;28;20034;-72
2022/08/13 11:43:38;;;;;;;3.50;0.70;;;36.20;42.40;;;;;;5030931;28;20419;-72
2022/08/13 11:46:04;;;;;;;2.87;0.50;;;36.20;42.50;;;;;;5031418;28;20790;-73
2022/08/13 11:48:30;;;;;;;;;;;36.10;42.70;;;;;;5031965;28;20033;-73
2022/08/13 11:50:56;;;;;;;12.05;1.08;;;36.30;41.60;;;;;;5031811;28;19921;-71
2022/08/13 11:53:22;;;;;;;;;;;36.30;42.30;;;;;;5031005;28;20041;-72
2022/08/13 11:55:48;;;;;;;5.07;0.50;;;36.40;41.10;;;;;;5030172;28;19921;-72
2022/08/13 11:58:13;;;;;;;1.05;0.50;;;36.50;42.10;;;;;;5031021;28;20045;-73
2022/08/13 12:00:42;;;;;;;7.60;0.73;;;36.60;41.80;;;;;;5031997;28;20045;-72
2022/08/13 12:03:08;;;;;;;7.30;0.80;;;36.60;43.10;;;;;;5030217;28;20116;-72
2022/08/13 12:05:34;;;;;;;5.95;0.73;;;36.80;42.00;;;;;;5031821;28;20041;-72
2022/08/13 12:08:01;;;;;;;0.93;0.40;;;36.80;41.20;;;;;;5031214;28;20037;-73
2022/08/13 12:10:27;;;;;;;27.52;3.33;;;36.80;41.70;;;;;;5030425;28;20064;-72
2022/08/13 12:12:53;;;;;;;4.35;0.65;;;36.80;41.70;;;;;;5031362;28;20120;-72
2022/08/13 12:15:18;;;;;;;147.00;13.13;;;36.90;42.00;;;;;;5030593;28;20666;-73
2022/08/13 12:17:46;;;;;;;9.98;1.33;;;37.10;42.20;;;;;;5031427;28;20091;-72
2022/08/13 12:20:18;;;;;;;30.55;3.10;;;37.30;42.00;;;;;;5031509;28;20404;-72
2022/08/13 12:22:44;;;;;;;30.98;2.45;;;37.40;41.40;;;;;;5031530;28;20047;-72
2022/08/13 12:25:11;;;;;;;8.05;0.90;;;37.40;41.70;;;;;;5031018;28;20120;-73
2022/08/13 12:27:37;;;;;;;1.27;0.40;;;37.40;40.50;;;;;;5031324;28;20588;-72
2022/08/13 12:30:04;;;;;;;1.10;0.60;;;37.40;42.00;;;;;;5031943;28;20049;-73
2022/08/13 12:32:30;;;;;;;1.00;0.30;;;37.50;41.70;;;;;;5025374;28;20088;-73
2022/08/13 12:34:55;;;;;;;4.10;0.50;;;37.70;41.10;;;;;;5024353;28;20548;-73
2022/08/13 12:37:23;;;;;;;0.70;0.40;;;37.80;40.50;;;;;;5030166;28;20051;-73
2022/08/13 12:39:53;;;;;;;2.10;1.17;;;37.60;39.80;;;;;;5029365;28;20488;-72
2022/08/13 12:42:19;;;;;;;3.38;0.50;;;37.40;41.30;;;;;;5019255;28;20050;-73
2022/08/13 12:44:44;;;;;;;;;;;37.50;41.50;;;;;;5032020;28;20042;-73
2022/08/13 12:47:10;;;;;;;1.20;0.57;;;37.80;40.90;;;;;;5030444;28;19924;-73
2022/08/13 12:49:36;;;;;;;1.35;0.35;;;38.10;40.70;;;;;;5030842;28;20041;-73
2022/08/13 12:52:01;;;;;;;3.42;0.50;;;38.30;40.20;;;;;;5030401;28;20041;-73
2022/08/13 12:54:28;;;;;;;1.48;0.63;;;38.40;40.40;;;;;;5030665;28;20506;-73
2022/08/13 12:56:54;;;;;;;2.25;0.30;;;38.40;39.90;;;;;;5023147;28;20083;-73
2022/08/13 12:59:20;;;;;;;2.65;0.55;;;38.30;40.00;;;;;;5030583;28;20047;-73
2022/08/13 13:01:51;;;;;;;0.75;0.40;;;38.30;39.70;;;;;;5027176;28;20073;-74
2022/08/13 13:04:17;;;;;;;1.38;0.57;;;38.30;40.10;;;;;;5029410;28;20064;-74
2022/08/13 13:06:43;;;;;;;2.15;0.63;;;38.40;39.50;;;;;;5029478;28;20102;-73
2022/08/13 13:09:08;;;;;;;0.82;0.40;;;38.40;39.80;;;;;;5030242;28;20966;-73
2022/08/13 13:11:34;;;;;;;1.88;0.50;;;38.50;39.50;;;;;;5030313;28;20045;-73
2022/08/13 13:14:00;;;;;;;1.85;0.40;;;38.60;39.40;;;;;;5029281;28;20041;-73